createdAt,value
2022-08-07T00:01:44.306Z,34741.48
2022-08-07T00:04:11.211Z,35409.79
2022-08-07T00:06:51.817Z,35014.27
2022-08-07T00:09:22.773Z,34881.84
2022-08-07T00:11:56.118Z,35090.36
2022-08-07T00:14:30.164Z,34808.63
2022-08-07T00:17:02.261Z,35225.85
2022-08-07T00:20:00.425Z,34587.74
2022-08-07T00:22:24.917Z,34759.40
2022-08-07T00:25:11.080Z,35205.96
2022-08-07T00:27:52.965Z,34805.40
2022-08-07T00:30:27.463Z,34681.38
2022-08-07T00:33:00.187Z,34560.29
2022-08-07T00:35:29.755Z,34730.59
2022-08-07T00:37:58.447Z,34711.27
2022-08-07T00:40:39.673Z,34525.61
2022-08-07T00:43:09.914Z,34955.16
2022-08-07T00:45:41.200Z,34499.16
2022-08-07T00:48:10.871Z,34894.96
2022-08-07T00:50:50.887Z,34675.92
2022-08-07T00:53:20.562Z,34918.78
2022-08-07T00:56:03.207Z,35168.64
2022-08-07T00:58:31.655Z,34667.65
2022-08-07T01:00:59.090Z,35216.04
2022-08-07T01:03:55.332Z,34973.36
2022-08-07T01:06:13.054Z,34556.53
2022-08-07T01:08:43.111Z,34709.53
2022-08-07T01:11:23.670Z,34210.81
2022-08-07T01:14:07.166Z,34565.11
2022-08-07T01:16:37.078Z,34227.46
2022-08-07T01:19:14.787Z,34463.91
2022-08-07T01:21:48.128Z,34314.29
2022-08-07T01:24:18.750Z,34328.91
2022-08-07T01:26:52.171Z,34702.80
2022-08-07T01:29:23.334Z,34235.90
2022-08-07T01:31:51.794Z,34527.87
2022-08-07T01:34:19.705Z,34431.53
2022-08-07T01:36:52.760Z,34478.89
2022-08-07T01:39:39.700Z,34417.08
2022-08-07T01:42:38.210Z,34241.11
2022-08-07T01:44:55.421Z,34949.90
2022-08-07T01:48:20.351Z,34862.51
2022-08-07T01:50:09.882Z,34968.91
2022-08-07T01:52:49.415Z,34965.93
2022-08-07T01:55:26.830Z,34811.00
2022-08-07T01:58:05.479Z,35141.44
2022-08-07T02:00:58.034Z,34439.26
2022-08-07T02:03:48.717Z,34363.68
2022-08-07T02:06:31.950Z,34410.72
2022-08-07T02:09:04.465Z,34223.63
2022-08-07T02:12:03.591Z,34544.59
2022-08-07T02:14:35.668Z,34103.43
2022-08-07T02:17:03.911Z,34189.19
2022-08-07T02:20:04.157Z,34305.13
2022-08-07T02:22:25.726Z,34454.29
2022-08-07T02:24:55.903Z,34150.18
2022-08-07T02:27:26.181Z,34015.79
2022-08-07T02:30:04.029Z,34079.07
2022-08-07T02:32:35.011Z,34403.54
2022-08-07T02:35:04.200Z,34369.64
2022-08-07T02:37:44.089Z,34488.37
2022-08-07T02:40:29.739Z,34334.97
2022-08-07T02:42:59.989Z,34524.70
2022-08-07T02:45:58.593Z,34515.68
2022-08-07T02:48:17.336Z,34340.62
2022-08-07T02:50:50.221Z,33908.51
2022-08-07T02:53:28.542Z,34497.71
2022-08-07T02:56:03.536Z,34150.24
2022-08-07T02:58:33.368Z,34885.55
2022-08-07T03:01:03.539Z,34227.63
2022-08-07T03:03:49.239Z,34175.79
2022-08-07T03:06:25.900Z,34596.43
2022-08-07T03:09:01.817Z,34578.50
2022-08-07T03:11:32.670Z,34581.76
2022-08-07T03:14:03.518Z,34284.32
2022-08-07T03:16:31.815Z,34314.57
2022-08-07T03:18:59.971Z,34447.92
2022-08-07T03:21:28.497Z,34337.69
2022-08-07T03:24:20.116Z,34584.14
2022-08-07T03:26:58.404Z,34607.94
2022-08-07T03:29:39.554Z,34137.66
2022-08-07T03:32:20.897Z,34611.23
2022-08-07T03:35:01.078Z,34428.29
2022-08-07T03:37:45.865Z,34217.02
2022-08-07T03:40:16.663Z,34533.78
2022-08-07T03:42:44.692Z,34869.18
2022-08-07T03:45:12.272Z,34261.21
2022-08-07T03:47:58.427Z,34513.72
2022-08-07T03:50:28.616Z,34567.55
2022-08-07T03:52:58.892Z,34736.40
2022-08-07T03:55:57.362Z,34491.25
2022-08-07T03:59:05.609Z,34736.49
2022-08-07T04:01:04.963Z,34747.16
2022-08-07T04:03:49.543Z,34521.26
2022-08-07T04:06:37.516Z,34534.09
2022-08-07T04:09:05.578Z,34875.66
2022-08-07T04:12:24.441Z,34527.43
2022-08-07T04:14:46.308Z,34708.04
2022-08-07T04:17:21.134Z,34596.06
2022-08-07T04:19:52.290Z,34855.38
2022-08-07T04:22:29.146Z,34827.93
2022-08-07T04:24:58.705Z,34791.47
2022-08-07T04:27:28.609Z,34713.96
2022-08-07T04:30:10.227Z,34439.46
2022-08-07T04:32:44.954Z,34578.90
2022-08-07T04:35:14.989Z,34682.38
2022-08-07T04:38:03.136Z,34641.15
2022-08-07T04:40:31.465Z,34832.38
2022-08-07T04:43:02.170Z,34567.59
2022-08-07T04:45:57.542Z,34987.68
2022-08-07T04:48:53.620Z,34670.77
2022-08-07T04:51:37.310Z,34636.11
2022-08-07T04:54:34.771Z,34423.07
2022-08-07T04:58:15.138Z,34447.03
2022-08-07T05:00:09.838Z,34334.97
2022-08-07T05:03:16.687Z,34641.04
2022-08-07T05:06:19.363Z,34258.67
2022-08-07T05:09:43.470Z,34364.43
2022-08-07T05:12:15.576Z,34598.41
2022-08-07T05:15:04.332Z,34272.79
2022-08-07T05:17:52.068Z,34674.15
2022-08-07T05:20:32.416Z,34433.87
2022-08-07T05:23:06.113Z,34577.11
2022-08-07T05:26:12.997Z,34385.28
2022-08-07T05:28:36.131Z,34375.59
2022-08-07T05:31:11.410Z,34430.50
2022-08-07T05:34:01.246Z,34766.15
2022-08-07T05:36:35.451Z,34684.74
2022-08-07T05:40:04.995Z,34558.01
2022-08-07T05:42:01.588Z,34693.79
2022-08-07T05:44:30.993Z,34368.87
2022-08-07T05:47:01.008Z,34239.18
2022-08-07T05:49:40.870Z,34647.01
2022-08-07T05:52:08.305Z,34371.12
2022-08-07T05:54:53.306Z,34479.63
2022-08-07T05:57:26.780Z,34402.26
2022-08-07T05:59:59.241Z,34095.82
2022-08-07T06:02:31.596Z,33927.93
2022-08-07T06:05:05.747Z,34168.94
2022-08-07T06:08:15.133Z,34602.89
2022-08-07T06:10:22.732Z,34640.50
2022-08-07T06:12:49.544Z,34262.62
2022-08-07T06:15:19.934Z,34649.23
2022-08-07T06:17:53.684Z,34206.84
2022-08-07T06:20:49.435Z,34508.57
2022-08-07T06:23:46.791Z,33935.08
2022-08-07T06:26:00.603Z,34361.20
2022-08-07T06:28:28.452Z,34217.52
2022-08-07T06:30:56.553Z,34339.09
2022-08-07T06:33:26.387Z,33782.44
2022-08-07T06:36:11.843Z,33928.92
2022-08-07T06:38:58.892Z,33814.46
2022-08-07T06:42:01.910Z,34293.11
2022-08-07T06:44:34.179Z,34318.35
2022-08-07T06:47:10.453Z,34127.69
2022-08-07T06:49:51.470Z,34404.23
2022-08-07T06:52:31.654Z,34015.71
2022-08-07T06:55:32.992Z,34220.23
2022-08-07T06:58:02.228Z,34401.72
2022-08-07T07:00:38.804Z,34221.68
2022-08-07T07:03:13.761Z,34151.52
2022-08-07T07:06:03.808Z,34436.21
2022-08-07T07:08:31.104Z,33954.15
2022-08-07T07:11:00.933Z,34246.38
2022-08-07T07:13:43.562Z,34367.36
2022-08-07T07:16:33.981Z,34210.52
2022-08-07T07:19:56.225Z,34292.36
2022-08-07T07:22:05.474Z,34608.10
2022-08-07T07:24:43.060Z,34411.60
2022-08-07T07:27:21.474Z,33985.83
2022-08-07T07:30:09.395Z,34546.66
2022-08-07T07:32:40.535Z,34353.32
2022-08-07T07:35:12.535Z,34577.27
2022-08-07T07:37:47.368Z,34580.53
2022-08-07T07:40:20.168Z,34300.48
2022-08-07T07:42:55.477Z,34802.79
2022-08-07T07:46:40.570Z,34479.42
2022-08-07T07:48:34.890Z,34529.95
2022-08-07T07:51:07.698Z,34718.37
2022-08-07T07:53:51.971Z,34178.88
2022-08-07T07:56:29.969Z,34461.64
2022-08-07T07:59:02.220Z,34952.88
2022-08-07T08:02:03.857Z,34677.10
2022-08-07T08:04:25.378Z,34319.98
2022-08-07T08:06:54.858Z,34436.36
2022-08-07T08:09:29.101Z,34483.54
2022-08-07T08:12:02.558Z,34421.65
2022-08-07T08:14:36.632Z,34546.72
2022-08-07T08:18:36.531Z,34258.49
2022-08-07T08:20:18.222Z,33896.97
2022-08-07T08:22:55.854Z,34076.76
2022-08-07T08:25:42.243Z,33972.11
2022-08-07T08:28:16.840Z,33856.15
2022-08-07T08:31:01.553Z,34217.55
2022-08-07T08:33:34.987Z,33819.63
2022-08-07T08:36:03.202Z,33862.88
2022-08-07T08:38:41.899Z,34212.74
2022-08-07T08:41:57.186Z,33609.90
2022-08-07T08:44:45.693Z,33291.32
2022-08-07T08:47:31.056Z,33173.70
2022-08-07T08:50:39.493Z,33162.88
2022-08-07T08:53:15.354Z,33188.43
2022-08-07T08:55:59.388Z,33214.15
2022-08-07T08:58:54.430Z,33030.15
2022-08-07T09:01:53.061Z,32867.74
2022-08-07T09:04:25.913Z,33275.01
2022-08-07T09:07:34.007Z,32817.39
2022-08-07T09:10:45.438Z,32751.88
2022-08-07T09:13:37.912Z,32996.63
2022-08-07T09:16:30.962Z,33078.56
2022-08-07T09:19:53.575Z,33238.43
2022-08-07T09:24:33.252Z,32835.94
2022-08-07T09:25:39.352Z,33306.64
2022-08-07T09:30:04.693Z,33025.63
2022-08-07T09:31:48.554Z,33262.96
2022-08-07T09:34:54.023Z,33195.18
2022-08-07T09:37:53.470Z,33181.63
2022-08-07T09:40:40.987Z,32806.17
2022-08-07T09:43:40.019Z,32797.04
2022-08-07T09:47:37.183Z,32950.54
2022-08-07T09:50:00.886Z,32730.65
2022-08-07T09:52:39.911Z,32886.29
2022-08-07T09:55:29.486Z,33113.12
2022-08-07T09:58:48.654Z,32709.59
2022-08-07T10:01:52.271Z,32714.49
2022-08-07T10:04:46.006Z,32961.10
2022-08-07T10:07:26.174Z,32648.46
2022-08-07T10:10:22.768Z,32800.30
2022-08-07T10:13:06.297Z,32984.24
2022-08-07T10:15:56.588Z,32511.77
2022-08-07T10:18:51.771Z,32558.53
2022-08-07T10:22:14.524Z,32467.69
2022-08-07T10:25:08.090Z,32536.28
2022-08-07T10:27:44.143Z,32506.17
2022-08-07T10:30:18.643Z,31987.03
2022-08-07T10:33:12.956Z,31781.98
2022-08-07T10:36:11.449Z,32091.30
2022-08-07T10:39:05.504Z,31796.79
2022-08-07T10:41:51.537Z,31859.90
2022-08-07T10:44:45.420Z,31826.79
2022-08-07T10:47:52.606Z,31899.75
2022-08-07T10:50:29.543Z,31906.10
2022-08-07T10:53:21.433Z,32179.17
2022-08-07T10:55:53.418Z,32063.57
2022-08-07T10:58:32.010Z,32130.20
2022-08-07T11:01:22.373Z,32048.05
2022-08-07T11:04:23.402Z,32097.65
2022-08-07T11:07:58.551Z,32260.62
2022-08-07T11:10:48.738Z,32299.90
2022-08-07T11:14:43.606Z,32247.74
2022-08-07T11:16:51.291Z,32099.14
2022-08-07T11:19:59.234Z,32211.23
2022-08-07T11:22:46.366Z,32281.44
2022-08-07T11:25:23.209Z,32201.99
2022-08-07T11:28:02.806Z,32106.51
2022-08-07T11:30:53.192Z,32212.42
2022-08-07T11:33:53.961Z,31774.17
2022-08-07T11:36:44.690Z,31960.75
2022-08-07T11:40:00.474Z,31769.86
2022-08-07T11:42:54.069Z,31908.88
2022-08-07T11:45:36.497Z,31793.01
2022-08-07T11:48:53.967Z,31704.34
2022-08-07T11:51:57.107Z,32220.19
2022-08-07T11:54:34.619Z,31998.97
2022-08-07T11:57:16.969Z,32159.73
2022-08-07T12:00:10.445Z,31778.58
2022-08-07T12:03:41.538Z,31612.41
2022-08-07T12:06:40.263Z,32192.16
2022-08-07T12:09:42.651Z,32098.95
2022-08-07T12:12:24.373Z,32116.62
2022-08-07T12:15:35.444Z,32239.83
2022-08-07T12:18:12.777Z,32074.54
2022-08-07T12:20:58.189Z,32359.02
2022-08-07T12:24:06.177Z,32097.18
2022-08-07T12:26:49.069Z,32012.38
2022-08-07T12:29:37.787Z,32667.45
2022-08-07T12:32:19.423Z,32216.06
2022-08-07T12:34:53.460Z,32303.38
2022-08-07T12:37:28.348Z,32257.79
2022-08-07T12:40:46.559Z,32192.39
2022-08-07T12:43:10.737Z,32204.94
2022-08-07T12:46:04.460Z,32698.70
2022-08-07T12:48:53.070Z,32509.91
2022-08-07T12:51:46.749Z,32206.97
2022-08-07T12:54:38.089Z,32405.90
2022-08-07T12:57:09.587Z,32483.52
2022-08-07T12:59:55.221Z,31985.35
2022-08-07T13:02:59.356Z,32393.66
2022-08-07T13:06:22.018Z,32237.10
2022-08-07T13:10:28.454Z,32140.81
2022-08-07T13:12:43.022Z,32269.44
2022-08-07T13:15:23.527Z,32645.60
2022-08-07T13:18:26.276Z,32632.19
2022-08-07T13:21:10.456Z,32501.72
2022-08-07T13:24:11.501Z,32429.89
2022-08-07T13:27:03.248Z,32564.91
2022-08-07T13:29:42.477Z,32633.61
2022-08-07T13:32:37.628Z,32708.14
2022-08-07T13:35:16.237Z,32472.38
2022-08-07T13:38:08.671Z,32535.86
2022-08-07T13:41:02.135Z,32087.53
2022-08-07T13:43:34.431Z,32814.35
2022-08-07T13:46:11.416Z,32968.01
2022-08-07T13:48:59.579Z,33021.80
2022-08-07T13:52:04.756Z,33038.66
2022-08-07T13:54:22.470Z,32628.48
2022-08-07T13:56:59.696Z,32873.54
2022-08-07T13:59:31.614Z,32598.92
2022-08-07T14:02:05.189Z,32872.94
2022-08-07T14:04:48.905Z,32495.22
2022-08-07T14:07:20.293Z,32890.99
2022-08-07T14:10:03.077Z,32730.19
2022-08-07T14:12:54.170Z,32728.92
2022-08-07T14:15:32.142Z,32328.14
2022-08-07T14:18:29.008Z,32544.03
2022-08-07T14:21:11.709Z,32961.18
2022-08-07T14:24:02.237Z,32691.78
2022-08-07T14:26:50.390Z,32967.42
2022-08-07T14:30:06.199Z,32591.43
2022-08-07T14:32:14.432Z,32983.57
2022-08-07T14:34:45.762Z,32906.79
2022-08-07T14:37:18.846Z,32634.91
2022-08-07T14:40:18.233Z,32877.44
2022-08-07T14:43:00.897Z,32327.13
2022-08-07T14:45:54.516Z,32867.05
2022-08-07T14:51:22.337Z,32390.11
2022-08-07T14:54:30.388Z,32616.16
2022-08-07T14:56:43.127Z,32812.04
2022-08-07T15:00:03.423Z,32431.36
2022-08-07T15:02:31.668Z,32867.43
2022-08-07T15:05:01.628Z,32489.86
2022-08-07T15:07:47.503Z,32957.48
2022-08-07T15:10:25.003Z,32900.05
2022-08-07T15:13:00.929Z,32497.10
2022-08-07T15:15:57.625Z,32657.05
2022-08-07T15:18:41.739Z,32785.35
2022-08-07T15:21:44.833Z,32385.32
2022-08-07T15:25:15.313Z,32820.87
2022-08-07T15:27:06.935Z,32611.73
2022-08-07T15:30:08.844Z,32708.06
2022-08-07T15:32:39.953Z,33105.02
2022-08-07T15:36:01.672Z,32871.11
2022-08-07T15:38:30.179Z,32789.47
2022-08-07T15:44:00.875Z,32988.73
2022-08-07T15:52:20.392Z,32868.00
2022-08-07T15:54:50.219Z,33071.87
2022-08-07T15:57:39.672Z,33103.23
2022-08-07T16:00:31.580Z,33017.82
2022-08-07T16:03:21.725Z,32952.12
2022-08-07T16:06:09.468Z,32863.59
2022-08-07T16:08:42.738Z,33033.32
2022-08-07T16:11:50.778Z,32919.04
2022-08-07T16:14:33.269Z,32886.04
2022-08-07T16:18:01.551Z,32699.87
2022-08-07T16:20:43.195Z,33101.81
2022-08-07T16:23:54.727Z,32794.57
2022-08-07T16:26:30.874Z,32970.57
2022-08-07T16:29:18.787Z,32994.07
2022-08-07T16:32:33.169Z,32262.39
2022-08-07T16:35:56.590Z,32509.65
2022-08-07T16:39:00.489Z,32511.42
2022-08-07T16:41:41.050Z,32670.72
2022-08-07T16:44:40.325Z,32775.05
2022-08-07T16:47:51.538Z,32803.96
2022-08-07T16:51:21.057Z,32755.09
2022-08-07T16:54:18.362Z,32624.08
2022-08-07T16:56:49.053Z,32286.34
2022-08-07T16:59:46.422Z,32705.64
2022-08-07T17:02:52.401Z,32531.57
2022-08-07T17:06:26.613Z,32389.56
2022-08-07T17:09:08.628Z,32310.27
2022-08-07T17:12:04.349Z,32976.66
2022-08-07T17:15:07.474Z,32033.93
2022-08-07T17:17:47.403Z,32352.06
2022-08-07T17:20:46.625Z,32371.38
2022-08-07T17:23:36.764Z,32486.60
2022-08-07T17:26:50.154Z,32790.23
2022-08-07T17:30:15.930Z,32712.63
2022-08-07T17:32:30.037Z,32496.58
2022-08-07T17:35:49.837Z,32698.48
2022-08-07T17:38:11.378Z,32396.06
2022-08-07T17:42:04.580Z,32499.85
2022-08-07T17:44:33.839Z,32934.36
2022-08-07T17:47:38.092Z,32716.81
2022-08-07T17:50:22.000Z,32897.87
2022-08-07T17:53:59.550Z,32690.68
2022-08-07T17:56:07.620Z,32866.50
2022-08-07T17:58:50.408Z,32597.81
2022-08-07T18:01:45.897Z,32744.46
2022-08-07T18:04:35.035Z,32565.83
2022-08-07T18:07:20.397Z,32473.81
2022-08-07T18:10:32.227Z,32801.71
2022-08-07T18:13:02.720Z,32884.01
2022-08-07T18:15:54.795Z,32630.25
2022-08-07T18:18:46.566Z,32484.52
2022-08-07T18:21:54.867Z,33084.64
2022-08-07T18:24:33.669Z,32850.54
2022-08-07T18:27:17.389Z,32549.46
2022-08-07T18:30:08.032Z,32678.93
2022-08-07T18:33:10.811Z,32820.60
2022-08-07T18:36:12.906Z,33016.32
2022-08-07T18:38:55.183Z,32707.32
2022-08-07T18:41:52.951Z,32832.36
2022-08-07T18:44:27.233Z,32893.29
2022-08-07T18:47:22.945Z,32744.65
2022-08-07T18:50:40.790Z,32714.92
2022-08-07T18:53:39.705Z,32824.87
2022-08-07T18:57:23.222Z,32718.34
2022-08-07T19:00:04.257Z,32300.33
2022-08-07T19:02:51.271Z,32140.08
2022-08-07T19:05:22.670Z,32454.31
2022-08-07T19:08:05.263Z,32269.03
2022-08-07T19:10:51.619Z,32351.03
2022-08-07T19:14:02.431Z,32490.88
2022-08-07T19:17:05.429Z,32396.58
2022-08-07T19:20:07.242Z,32645.64
2022-08-07T19:23:18.757Z,32351.17
2022-08-07T19:25:52.283Z,32711.22
2022-08-07T19:30:56.848Z,32611.06
2022-08-07T19:32:07.896Z,32372.89
2022-08-07T19:34:34.261Z,32179.03
2022-08-07T19:37:17.542Z,32414.98
2022-08-07T19:40:01.839Z,32666.80
2022-08-07T19:42:31.671Z,32775.40
2022-08-07T19:46:04.897Z,32711.24
2022-08-07T19:48:18.471Z,32513.26
2022-08-07T19:50:53.184Z,33068.79
2022-08-07T19:54:34.051Z,32988.46
2022-08-07T19:57:51.501Z,32769.68
2022-08-07T19:59:02.473Z,33182.08
2022-08-07T20:01:52.591Z,33020.14
2022-08-07T20:04:31.608Z,32973.76
2022-08-07T20:07:01.112Z,33161.65
2022-08-07T20:10:33.607Z,32886.87
2022-08-07T20:12:35.937Z,32606.44
2022-08-07T20:15:15.544Z,33022.72
2022-08-07T20:18:01.390Z,32829.82
2022-08-07T20:20:33.255Z,32991.23
2022-08-07T20:23:40.584Z,32990.47
2022-08-07T20:26:10.013Z,32921.14
2022-08-07T20:28:39.733Z,33029.71
2022-08-07T20:31:21.120Z,33038.35
2022-08-07T20:33:57.504Z,33026.30
2022-08-07T20:36:28.479Z,32934.65
2022-08-07T20:39:00.352Z,32857.66
2022-08-07T20:41:34.157Z,32902.93
2022-08-07T20:44:12.552Z,33118.70
2022-08-07T20:46:43.190Z,33231.23
2022-08-07T20:49:58.182Z,32882.38
2022-08-07T20:52:09.322Z,33266.37
2022-08-07T20:54:45.664Z,33495.84
2022-08-07T20:58:02.598Z,33193.46
2022-08-07T21:00:45.597Z,33556.28
2022-08-07T21:03:16.770Z,32713.90
2022-08-07T21:06:22.361Z,33246.62
2022-08-07T21:08:55.921Z,33202.46
2022-08-07T21:11:29.065Z,33333.01
2022-08-07T21:14:33.108Z,33263.98
2022-08-07T21:18:03.662Z,33252.57
2022-08-07T21:20:10.281Z,33384.85
2022-08-07T21:22:54.997Z,33409.36
2022-08-07T21:26:01.476Z,33556.06
2022-08-07T21:29:12.766Z,33654.17
2022-08-07T21:32:47.307Z,33730.71
2022-08-07T21:34:55.325Z,33398.21
2022-08-07T21:37:58.324Z,32968.94
2022-08-07T21:40:45.945Z,33101.70
2022-08-07T21:43:56.868Z,33766.68
2022-08-07T21:46:35.960Z,33426.73
2022-08-07T21:49:02.690Z,33577.67
2022-08-07T21:52:02.868Z,33764.37
2022-08-07T21:55:15.290Z,33590.01
2022-08-07T21:58:07.906Z,33532.50
2022-08-07T22:00:47.154Z,33515.31
2022-08-07T22:03:32.036Z,33926.34
2022-08-07T22:06:30.026Z,33466.48
2022-08-07T22:09:11.665Z,33794.62
2022-08-07T22:12:05.699Z,34361.65
2022-08-07T22:14:59.338Z,33612.97
2022-08-07T22:17:36.881Z,33651.43
2022-08-07T22:20:23.179Z,33881.70
2022-08-07T22:23:11.581Z,34536.87
2022-08-07T22:26:01.694Z,34179.68
2022-08-07T22:28:41.423Z,33872.05
2022-08-07T22:32:05.406Z,33915.66
2022-08-07T22:34:49.762Z,34252.82
2022-08-07T22:38:02.777Z,34447.71
2022-08-07T22:40:29.652Z,34041.56
2022-08-07T22:43:07.218Z,34003.90
2022-08-07T22:46:40.855Z,34431.35
2022-08-07T22:49:06.527Z,34132.26
2022-08-07T22:51:49.327Z,34317.03
2022-08-07T22:54:48.765Z,34257.34
2022-08-07T22:57:43.338Z,33966.44
2022-08-07T23:00:31.665Z,34203.48
2022-08-07T23:03:10.996Z,34179.37
2022-08-07T23:06:10.128Z,34084.32
2022-08-07T23:08:54.574Z,34137.96
2022-08-07T23:12:00.494Z,34120.19
2022-08-07T23:14:47.441Z,34256.42
2022-08-07T23:17:45.950Z,34012.60
2022-08-07T23:20:40.428Z,33959.28
2022-08-07T23:24:05.966Z,34150.13
2022-08-07T23:27:34.764Z,34098.92
2022-08-07T23:30:39.408Z,34229.06
2022-08-07T23:34:36.419Z,34232.00
2022-08-07T23:36:38.425Z,34483.60
2022-08-07T23:39:22.204Z,33894.99
2022-08-07T23:42:08.326Z,33672.89
2022-08-07T23:45:15.123Z,33857.41
2022-08-07T23:48:06.569Z,34144.45
2022-08-07T23:50:47.022Z,33505.42
2022-08-07T23:53:49.400Z,33764.30
2022-08-07T23:56:54.930Z,33426.30
